Southern Tiare — E5U2082 — position and weather

sailwx.info

Track history (hours):
 
Tides and Currents Weather Stations Pressure Air Temp Water Temp Dewpoint Dewpoint Depression Visibility Wind Speed Wind Dir Waves Ship Positions

Southern Tiare

Last reported at 2015-Jun-02 09:24 UTC. Time now 2015-Jul-03 20:21 UTC.
Position S 36°18' E 174°56'.
Warning: this ship's position is 31 days out of date.

Length 67 m; draft 3.3 m.

Type: Cargo ship. MMSI: 518132000.

Date/timePositionNaut miles runAvg speedWind from/ knotsBaromVisibWave heightAir tempDewpointWater temp
2015-Jun-02 09:24S 36°18' E 174°56'7 8.6
2015-Jun-02 08:33S 36°25' E 174°57'9 9.0
2015-Jun-02 07:33S 36°34' E 174°57'9 8.7
2015-Jun-02 06:33S 36°42' E 174°53'7 7.5
2015-Jun-02 05:33S 36°49' E 174°50'3 2.6
2015-Jun-02 04:27S 36°50' E 174°47'0 0.0
2015-Jun-02 03:33S 36°50' E 174°47'0 0.0
2015-Jun-02 02:32S 36°50' E 174°47'0 0.0
2015-Jun-02 01:27S 36°50' E 174°47'0 0.0
2015-Jun-02 00:15S 36°50' E 174°47'0 0.0
2015-Jun-01 23:33S 36°50' E 174°47'0 0.0
2015-Jun-01 22:33S 36°50' E 174°47'0 0.0
2015-Jun-01 21:27S 36°50' E 174°47'0 0.0
2015-Jun-01 20:15S 36°50' E 174°47'0 0.0
2015-Jun-01 19:33S 36°50' E 174°47'0 0.0
2015-Jun-01 18:33S 36°50' E 174°47'0 0.0
2015-Jun-01 17:33S 36°50' E 174°47'0 0.0
2015-Jun-01 16:33S 36°50' E 174°47'0 0.0
2015-Jun-01 15:33S 36°50' E 174°47'0 0.0
2015-Jun-01 14:27S 36°50' E 174°47'0 0.0
2015-Jun-01 13:33S 36°50' E 174°47'0 0.0
2015-Jun-01 12:33S 36°50' E 174°47'0 0.0
2015-Jun-01 11:32S 36°50' E 174°47'0 0.0
2015-Jun-01 10:32S 36°50' E 174°47'0 0.0
2015-Jun-01 09:32S 36°50' E 174°47'0 0.0
2015-Jun-01 08:32S 36°50' E 174°47'0 0.0
2015-Jun-01 07:32S 36°50' E 174°47'0 0.0
2015-Jun-01 06:32S 36°50' E 174°47'0 0.0
2015-Jun-01 05:32S 36°50' E 174°47'0 0.0
2015-Jun-01 01:14S 36°50' E 174°47'0 0.0
2015-Jun-01 00:32S 36°50' E 174°47'0 0.0
2015-May-31 23:26S 36°50' E 174°47'0 0.0
2015-May-31 22:26S 36°50' E 174°47'0 0.0
2015-May-31 21:26S 36°50' E 174°47'0 0.0
2015-May-31 20:32S 36°50' E 174°47'0 0.0
2015-May-31 12:20S 36°50' E 174°47'0 0.0
2015-May-31 10:08S 36°50' E 174°47'0 0.0
2015-May-31 06:14S 36°50' E 174°47'0 0.0
2015-May-31 04:32S 36°50' E 174°47'0 0.0
2015-May-31 03:32S 36°50' E 174°47'0 0.0
2015-May-31 02:32S 36°50' E 174°47'0 0.0
2015-May-31 01:33S 36°50' E 174°47'0 0.0
2015-May-31 00:32S 36°50' E 174°47'0 0.0
2015-May-30 23:33S 36°50' E 174°47'4 4.2
2015-May-30 22:33S 36°47' E 174°49'1010.0
2015-May-30 21:33S 36°39' E 174°56'  
Track history (hours):
 
Tides and Currents Weather Stations Pressure Air Temp Water Temp Dewpoint Dewpoint Depression Visibility Wind Speed Wind Dir Waves Ship Positions

Southern Tiare

Last reported at 2015-Jun-02 09:24 UTC. Time now 2015-Jul-03 20:21 UTC.
Position S 36°18' E 174°56'.
Warning: this ship's position is 31 days out of date.

Length 67 m; draft 3.3 m.

Type: Cargo ship. MMSI: 518132000.

Date/timePositionNaut miles runAvg speedWind from/ knotsBaromVisibWave heightAir tempDewpointWater temp
2015-Jun-02 09:24S 36°18' E 174°56'7 8.6
2015-Jun-02 08:33S 36°25' E 174°57'9 9.0
2015-Jun-02 07:33S 36°34' E 174°57'9 8.7
2015-Jun-02 06:33S 36°42' E 174°53'7 7.5
2015-Jun-02 05:33S 36°49' E 174°50'3 2.6
2015-Jun-02 04:27S 36°50' E 174°47'0 0.0
2015-Jun-02 03:33S 36°50' E 174°47'0 0.0
2015-Jun-02 02:32S 36°50' E 174°47'0 0.0
2015-Jun-02 01:27S 36°50' E 174°47'0 0.0
2015-Jun-02 00:15S 36°50' E 174°47'0 0.0
2015-Jun-01 23:33S 36°50' E 174°47'0 0.0
2015-Jun-01 22:33S 36°50' E 174°47'0 0.0
2015-Jun-01 21:27S 36°50' E 174°47'0 0.0
2015-Jun-01 20:15S 36°50' E 174°47'0 0.0
2015-Jun-01 19:33S 36°50' E 174°47'0 0.0
2015-Jun-01 18:33S 36°50' E 174°47'0 0.0
2015-Jun-01 17:33S 36°50' E 174°47'0 0.0
2015-Jun-01 16:33S 36°50' E 174°47'0 0.0
2015-Jun-01 15:33S 36°50' E 174°47'0 0.0
2015-Jun-01 14:27S 36°50' E 174°47'0 0.0
2015-Jun-01 13:33S 36°50' E 174°47'0 0.0
2015-Jun-01 12:33S 36°50' E 174°47'0 0.0
2015-Jun-01 11:32S 36°50' E 174°47'0 0.0
2015-Jun-01 10:32S 36°50' E 174°47'0 0.0
2015-Jun-01 09:32S 36°50' E 174°47'0 0.0
2015-Jun-01 08:32S 36°50' E 174°47'0 0.0
2015-Jun-01 07:32S 36°50' E 174°47'0 0.0
2015-Jun-01 06:32S 36°50' E 174°47'0 0.0
2015-Jun-01 05:32S 36°50' E 174°47'0 0.0
2015-Jun-01 01:14S 36°50' E 174°47'0 0.0
2015-Jun-01 00:32S 36°50' E 174°47'0 0.0
2015-May-31 23:26S 36°50' E 174°47'0 0.0
2015-May-31 22:26S 36°50' E 174°47'0 0.0
2015-May-31 21:26S 36°50' E 174°47'0 0.0
2015-May-31 20:32S 36°50' E 174°47'0 0.0
2015-May-31 12:20S 36°50' E 174°47'0 0.0
2015-May-31 10:08S 36°50' E 174°47'0 0.0
2015-May-31 06:14S 36°50' E 174°47'0 0.0
2015-May-31 04:32S 36°50' E 174°47'0 0.0
2015-May-31 03:32S 36°50' E 174°47'0 0.0
2015-May-31 02:32S 36°50' E 174°47'0 0.0
2015-May-31 01:33S 36°50' E 174°47'0 0.0
2015-May-31 00:32S 36°50' E 174°47'0 0.0
2015-May-30 23:33S 36°50' E 174°47'4 4.2
2015-May-30 22:33S 36°47' E 174°49'1010.0
2015-May-30 21:33S 36°39' E 174°56'  

Dump ship's entire track history